Weather History for St. Francis, KS

Change the Weather History Date:

Saturday, September 21, 2013

  Actual Average Record
Temperature  
Mean Temperature 66 °F -  
Max Temperature 83 °F 78 °F 83 °F (2013)
Min Temperature 49 °F 46 °F 48 °F (2014)
Cooling Degree Days 1    
Growing Degree Days 16 (Base 50)    
Moisture  
Dew Point 46 °F    
Average Humidity 52    
Maximum Humidity 87    
Minimum Humidity 21    
Precipitation  
Precipitation 0.00 in - - ()
Sea Level Pressure  
Sea Level Pressure 29.94 in    
Wind  
Wind Speed 10 mph (South)    
Max Wind Speed 22 mph    
Max Gust Speed 28 mph    
Visibility 10 miles    
Events      
Averages and records for this station are not official NWS values.
T = Trace of Precipitation, MM = Missing Value Source: NWS Daily Summary

Daily Weather History Graph

Daily Weather History Graph

Search for Another Location

Airport:

Trip Planner

Search our weather history database for the weather conditions in past years. The results will help you decide how hot, cold, wet, or windy it might be!

Date:

Astronomy

Sep. 21, 2013 Rise Set
Actual Time 7:34 AM CDT 7:45 PM CDT
Civil Twilight 7:07 AM CDT 8:12 PM CDT
Nautical Twilight 6:35 AM CDT 8:43 PM CDT
Astronomical Twilight 6:03 AM CDT 9:15 PM CDT
Moon 8:58 PM CDT (9/21) 9:54 AM CDT (9/21)
Length of Visible Light 13h 05m
Length of Day
12h 11m
Waning Gibbous, 94% of the Moon is Illuminated
Sep 21
Waning Gibbous
Sep 26
Last Quarter
Oct 4
New
Oct 11
First Quarter
Oct 18
Full

Hourly Weather History & Observations

Time (CDT) Temp. Dew Point Humidity Pressure Visibility Wind Dir Wind Speed Gust Speed Precip Events Conditions
12:15 AM 58.1 °F 42.8 °F 57% 30.05 in 10.0 mi SSW 11.5 mph - N/A   Clear
12:35 AM 57.4 °F 43.2 °F 59% 30.05 in 10.0 mi SW 9.2 mph - N/A   Clear
12:55 AM 57.6 °F 42.8 °F 58% 30.04 in 10.0 mi SSW 11.5 mph - N/A   Clear
1:15 AM 56.5 °F 42.8 °F 60% 30.04 in 10.0 mi SW 9.2 mph - N/A   Clear
1:35 AM 57.0 °F 42.3 °F 58% 30.04 in 10.0 mi SW 10.4 mph - N/A   Clear
1:55 AM 56.8 °F 42.4 °F 59% 30.04 in 10.0 mi SSW 10.4 mph - N/A   Clear
2:15 AM 55.9 °F 42.8 °F 61% 30.04 in 10.0 mi SW 10.4 mph - N/A   Clear
2:35 AM 55.0 °F 43.0 °F 64% 30.04 in 10.0 mi SW 10.4 mph - N/A   Clear
2:55 AM 53.8 °F 43.3 °F 68% 30.03 in 10.0 mi SW 10.4 mph - N/A   Clear
3:15 AM 53.1 °F 43.7 °F 71% 30.03 in 10.0 mi SW 9.2 mph - N/A   Clear
3:35 AM 53.2 °F 43.9 °F 71% 30.02 in 10.0 mi SW 10.4 mph - N/A   Clear
3:55 AM 53.8 °F 44.2 °F 70% 30.02 in 10.0 mi WSW 11.5 mph - N/A   Clear
4:15 AM 53.1 °F 44.6 °F 73% 30.01 in 10.0 mi SW 10.4 mph - N/A   Clear
4:35 AM 53.4 °F 45.0 °F 73% 30.01 in 10.0 mi SW 10.4 mph - N/A   Clear
4:55 AM 52.3 °F 45.0 °F 76% 30.00 in 10.0 mi SW 8.1 mph - N/A   Clear
5:15 AM 51.8 °F 45.1 °F 78% 30.00 in 10.0 mi SSW 9.2 mph - N/A   Clear
5:35 AM 51.3 °F 45.5 °F 81% 30.01 in 10.0 mi SSW 9.2 mph - N/A   Clear
5:55 AM 52.0 °F 45.5 °F 79% 30.01 in 10.0 mi SSW 9.2 mph - N/A   Clear
6:15 AM 51.1 °F 45.5 °F 81% 30.01 in 10.0 mi SSW 8.1 mph - N/A   Clear
6:35 AM 50.0 °F 45.1 °F 83% 30.01 in 10.0 mi SSW 8.1 mph - N/A   Clear
6:55 AM 49.5 °F 45.3 °F 86% 30.01 in 10.0 mi SSW 8.1 mph - N/A   Clear
7:15 AM 49.5 °F 45.5 °F 86% 30.02 in 10.0 mi SSW 10.4 mph - N/A   Clear
7:35 AM 49.3 °F 45.5 °F 87% 30.02 in 10.0 mi SSW 9.2 mph - N/A   Clear
7:55 AM 50.2 °F 46.0 °F 86% 30.01 in 10.0 mi SSW 9.2 mph - N/A   Clear
8:15 AM 51.1 °F 46.8 °F 85% 30.01 in 10.0 mi SW 10.4 mph - N/A   Clear
8:35 AM 53.1 °F 48.0 °F 83% 30.01 in 10.0 mi SSW 5.8 mph - N/A   Clear
8:55 AM 55.4 °F 48.6 °F 78% 30.01 in 10.0 mi SW 8.1 mph - N/A   Clear
9:15 AM 58.1 °F 49.3 °F 72% 30.00 in 10.0 mi South 4.6 mph - N/A   Clear
9:35 AM 59.9 °F 49.6 °F 69% 30.00 in 10.0 mi SW 3.5 mph - N/A   Clear
9:55 AM 62.6 °F 50.2 °F 64% 30.01 in 10.0 mi Calm Calm - N/A   Clear
10:15 AM 65.5 °F 51.1 °F 60% 30.00 in 10.0 mi Calm Calm - N/A   Clear
10:35 AM 70.5 °F 46.9 °F 43% 29.99 in 10.0 mi SSE 10.4 mph - N/A   Clear
10:55 AM 72.7 °F 46.8 °F 40% 29.99 in 10.0 mi South 12.7 mph - N/A   Clear
11:15 AM 73.6 °F 46.2 °F 38% 29.99 in 10.0 mi South 9.2 mph - N/A   Clear
11:35 AM 74.3 °F 44.8 °F 35% 29.98 in 10.0 mi SSW 9.2 mph - N/A   Clear
11:55 AM 75.6 °F 45.5 °F 34% 29.98 in 10.0 mi SSE 10.4 mph - N/A   Clear
12:15 PM 77.0 °F 43.9 °F 31% 29.97 in 10.0 mi SSE 8.1 mph - N/A   Clear
12:35 PM 77.7 °F 42.3 °F 28% 29.96 in 10.0 mi SSE 8.1 mph - N/A   Clear
12:55 PM 78.8 °F 41.7 °F 27% 29.96 in 10.0 mi South 9.2 mph - N/A   Clear
1:15 PM 79.7 °F 43.0 °F 27% 29.95 in 10.0 mi SSE 6.9 mph - N/A   Clear
1:35 PM 80.2 °F 42.4 °F 26% 29.94 in 10.0 mi South 10.4 mph - N/A   Clear
1:55 PM 81.3 °F 44.4 °F 27% 29.93 in 10.0 mi SSE 9.2 mph - N/A   Clear
2:15 PM 81.0 °F 44.2 °F 27% 29.92 in 10.0 mi South 10.4 mph - N/A   Clear
2:35 PM 81.7 °F 43.9 °F 26% 29.91 in 10.0 mi SSE 11.5 mph - N/A   Clear
2:55 PM 82.4 °F 43.2 °F 25% 29.90 in 10.0 mi SSE 8.1 mph - N/A   Clear
3:15 PM 82.2 °F 42.8 °F 25% 29.89 in 10.0 mi SSE 9.2 mph - N/A   Clear
3:35 PM 83.3 °F 39.9 °F 21% 29.88 in 10.0 mi South 10.4 mph - N/A   Clear
3:55 PM 83.5 °F 40.8 °F 22% 29.88 in 10.0 mi South 12.7 mph - N/A   Clear
4:15 PM 83.5 °F 40.6 °F 22% 29.87 in 10.0 mi South 13.8 mph - N/A   Clear
4:35 PM 83.1 °F 41.9 °F 23% 29.87 in 10.0 mi SSE 11.5 mph 17.3 mph N/A   Clear
4:55 PM 82.9 °F 42.3 °F 24% 29.86 in 10.0 mi SSE 13.8 mph 19.6 mph N/A   Clear
5:15 PM 82.8 °F 42.4 °F 24% 29.85 in 10.0 mi SSE 15.0 mph - N/A   Clear
5:35 PM 82.8 °F 42.1 °F 24% 29.85 in 10.0 mi South 13.8 mph 23.0 mph N/A   Clear
5:55 PM 82.4 °F 41.9 °F 24% 29.84 in 10.0 mi South 15.0 mph 20.7 mph N/A   Clear
6:15 PM 81.7 °F 42.6 °F 25% 29.84 in 10.0 mi SSE 13.8 mph - N/A   Clear
6:35 PM 81.1 °F 43.2 °F 26% 29.83 in 10.0 mi South 12.7 mph - N/A   Clear
6:55 PM 80.1 °F 43.7 °F 28% 29.83 in 10.0 mi SSE 11.5 mph - N/A   Clear
7:15 PM 77.5 °F 45.3 °F 32% 29.83 in 10.0 mi SSE 9.2 mph - N/A   Clear
7:35 PM 72.7 °F 47.7 °F 41% 29.82 in 10.0 mi SSE 9.2 mph - N/A   Clear
7:55 PM 69.8 °F 48.7 °F 47% 29.82 in 10.0 mi SSE 10.4 mph - N/A   Clear
8:15 PM 69.8 °F 49.1 °F 48% 29.82 in 10.0 mi SSE 10.4 mph - N/A   Clear
8:35 PM 68.4 °F 50.0 °F 52% 29.82 in 10.0 mi SSE 11.5 mph - N/A   Clear
8:55 PM 68.5 °F 50.2 °F 52% 29.82 in 10.0 mi SE 12.7 mph - N/A   Clear
9:15 PM 67.6 °F 50.4 °F 54% 29.82 in 10.0 mi SSE 11.5 mph - N/A   Clear
9:35 PM 67.5 °F 52.0 °F 58% 29.83 in 10.0 mi SSE 13.8 mph - N/A   Clear
9:55 PM 67.1 °F 53.4 °F 61% 29.82 in 10.0 mi SSE 15.0 mph - N/A   Clear
10:15 PM 66.4 °F 53.8 °F 64% 29.82 in 10.0 mi SSE 13.8 mph - N/A   Clear
10:35 PM 67.1 °F 53.6 °F 62% 29.82 in 10.0 mi SSE 16.1 mph - N/A   Clear
10:55 PM 67.5 °F 53.6 °F 61% 29.82 in 10.0 mi South 18.4 mph - N/A   Clear
11:15 PM 67.5 °F 53.6 °F 61% 29.82 in 10.0 mi South 19.6 mph - N/A   Clear
11:35 PM 67.6 °F 53.6 °F 61% 29.82 in 10.0 mi South 18.4 mph 25.3 mph N/A   Clear
11:55 PM 67.6 °F 53.6 °F 61% 29.81 in 10.0 mi South 21.9 mph 27.6 mph N/A   Clear